createdAt,value
2018-08-25T00:02:13.254Z,51.87
2018-08-25T00:07:16.817Z,52.46
2018-08-25T00:12:20.771Z,52.15
2018-08-25T00:17:24.468Z,52.27
2018-08-25T00:22:28.161Z,52.30
2018-08-25T00:27:31.757Z,51.98
2018-08-25T00:32:35.361Z,52.28
2018-08-25T00:37:39.033Z,52.19
2018-08-25T00:42:42.666Z,51.69
2018-08-25T00:47:46.368Z,51.91
2018-08-25T00:52:50.118Z,51.71
2018-08-25T00:57:53.765Z,52.25
2018-08-25T01:02:57.386Z,51.78
2018-08-25T01:08:01.068Z,51.77
2018-08-25T01:13:04.776Z,51.95
2018-08-25T01:18:08.460Z,51.59
2018-08-25T01:23:12.067Z,51.72
2018-08-25T01:28:15.719Z,51.52
2018-08-25T01:33:19.335Z,51.25
2018-08-25T01:38:22.958Z,51.06
2018-08-25T01:43:26.595Z,51.73
2018-08-25T01:48:30.275Z,51.43
2018-08-25T01:53:33.868Z,51.18
2018-08-25T01:58:37.660Z,51.22
2018-08-25T02:03:41.284Z,51.10
2018-08-25T02:08:44.931Z,50.46
2018-08-25T02:13:48.663Z,50.61
2018-08-25T02:18:52.343Z,51.15
2018-08-25T02:23:56.206Z,51.09
2018-08-25T02:28:59.830Z,51.08
2018-08-25T02:34:03.431Z,51.06
2018-08-25T02:39:10.685Z,50.27
2018-08-25T02:44:14.368Z,50.31
2018-08-25T02:49:18.041Z,50.38
2018-08-25T02:54:21.694Z,50.43
2018-08-25T02:59:25.308Z,50.58
2018-08-25T03:04:28.949Z,50.29
2018-08-25T03:09:32.589Z,50.11
2018-08-25T03:14:36.231Z,50.19
2018-08-25T03:19:39.830Z,50.10
2018-08-25T03:24:43.474Z,50.33
2018-08-25T03:29:47.115Z,50.13
2018-08-25T03:34:50.750Z,49.87
2018-08-25T03:39:54.606Z,49.77
2018-08-25T03:44:58.263Z,50.11
2018-08-25T03:50:03.851Z,50.02
2018-08-25T03:55:08.232Z,50.35
2018-08-25T04:00:11.885Z,49.89
2018-08-25T04:05:15.562Z,50.11
2018-08-25T04:10:19.246Z,50.59
2018-08-25T04:15:22.905Z,51.02
2018-08-25T04:20:26.538Z,51.20
2018-08-25T04:25:30.164Z,51.29
2018-08-25T04:30:33.974Z,51.20
2018-08-25T04:35:37.784Z,51.49
2018-08-25T04:40:41.473Z,50.96
2018-08-25T04:45:45.234Z,50.77
2018-08-25T04:50:48.886Z,50.87
2018-08-25T04:55:52.510Z,51.23
2018-08-25T05:00:56.932Z,51.31
2018-08-25T05:06:00.580Z,51.09
2018-08-25T05:11:04.227Z,51.25
2018-08-25T05:16:07.850Z,51.36
2018-08-25T05:21:11.481Z,51.64
2018-08-25T05:26:15.306Z,51.92
2018-08-25T05:31:18.892Z,51.66
2018-08-25T05:36:22.594Z,51.58
2018-08-25T05:41:26.254Z,51.97
2018-08-25T05:46:29.901Z,51.48
2018-08-25T05:51:33.490Z,51.49
2018-08-25T05:56:37.096Z,51.59
2018-08-25T06:01:40.840Z,52.02
2018-08-25T06:06:44.550Z,51.41
2018-08-25T06:11:48.188Z,51.17
2018-08-25T06:16:51.839Z,51.32
2018-08-25T06:21:55.507Z,51.39
2018-08-25T06:26:59.184Z,51.29
2018-08-25T06:32:03.103Z,51.49
2018-08-25T06:37:07.080Z,51.56
2018-08-25T06:42:11.367Z,50.83
2018-08-25T06:47:15.183Z,50.06
2018-08-25T06:52:19.309Z,50.68
2018-08-25T06:57:22.946Z,50.70
2018-08-25T07:02:26.575Z,50.65
2018-08-25T07:07:30.212Z,52.10
2018-08-25T07:12:33.881Z,52.60
2018-08-25T07:17:37.543Z,53.12
2018-08-25T07:22:41.137Z,54.05
2018-08-25T07:27:44.760Z,52.58
2018-08-25T07:32:48.373Z,51.80
2018-08-25T07:37:51.977Z,52.55
2018-08-25T07:42:55.610Z,51.99
2018-08-25T07:47:59.283Z,51.72
2018-08-25T07:53:02.926Z,52.22
2018-08-25T07:58:06.727Z,51.51
2018-08-25T08:03:10.335Z,50.25
2018-08-25T08:08:13.990Z,48.46
2018-08-25T08:13:17.622Z,47.25
2018-08-25T08:18:21.302Z,48.04
2018-08-25T08:23:24.944Z,47.49
2018-08-25T08:28:28.739Z,46.19
2018-08-25T08:33:32.478Z,45.26
2018-08-25T08:38:37.654Z,45.80
2018-08-25T08:43:41.235Z,45.94
2018-08-25T08:48:44.849Z,45.40
2018-08-25T08:59:19.345Z,44.48
2018-08-25T09:04:22.929Z,44.99
2018-08-25T09:09:26.598Z,44.61
2018-08-25T09:14:30.276Z,44.74
2018-08-25T09:19:33.956Z,43.29
2018-08-25T09:24:37.718Z,44.10
2018-08-25T09:29:41.323Z,43.86
2018-08-25T09:34:44.927Z,44.72
2018-08-25T09:39:48.591Z,44.83
2018-08-25T09:44:52.255Z,45.34
2018-08-25T09:49:55.939Z,45.10
2018-08-25T09:54:59.597Z,45.75
2018-08-25T10:00:04.347Z,44.59
2018-08-25T10:05:08.646Z,46.10
2018-08-25T10:10:12.339Z,45.23
2018-08-25T10:15:16.011Z,45.01
2018-08-25T10:20:19.682Z,43.87
2018-08-25T10:25:23.379Z,45.02
2018-08-25T10:30:27.070Z,45.18
2018-08-25T10:35:30.695Z,44.73
2018-08-25T10:40:34.527Z,44.10
2018-08-25T10:45:38.159Z,43.56
2018-08-25T10:50:41.778Z,43.37
2018-08-25T10:55:45.362Z,42.49
2018-08-25T11:00:49.277Z,41.64
2018-08-25T11:05:52.750Z,42.37
2018-08-25T11:10:56.392Z,43.29
2018-08-25T11:16:00.086Z,43.46
2018-08-25T11:21:03.848Z,44.30
2018-08-25T11:26:07.572Z,44.36
2018-08-25T11:31:11.223Z,43.02
2018-08-25T11:36:14.946Z,43.00
2018-08-25T11:41:18.590Z,43.36
2018-08-25T11:46:22.252Z,43.70
2018-08-25T11:51:25.965Z,43.92
2018-08-25T11:56:29.618Z,43.92
2018-08-25T12:01:33.822Z,44.21
2018-08-25T12:06:37.555Z,44.91
2018-08-25T12:11:41.695Z,44.92
2018-08-25T12:16:45.340Z,44.74
2018-08-25T12:21:49.070Z,45.39
2018-08-25T12:26:54.591Z,45.19
2018-08-25T12:31:58.865Z,45.24
2018-08-25T12:37:02.472Z,45.55
2018-08-25T12:42:07.072Z,45.29
2018-08-25T12:47:10.951Z,45.92
2018-08-25T12:52:14.760Z,45.97
2018-08-25T12:57:19.076Z,46.14
2018-08-25T13:02:22.757Z,46.60
2018-08-25T13:07:26.449Z,46.34
2018-08-25T13:12:30.084Z,45.60
2018-08-25T13:17:34.029Z,45.72
2018-08-25T13:22:37.759Z,45.70
2018-08-25T13:27:41.463Z,46.32
2018-08-25T13:32:45.156Z,45.93
2018-08-25T13:37:48.806Z,45.50
2018-08-25T13:42:52.421Z,45.64
2018-08-25T13:47:56.085Z,46.05
2018-08-25T13:52:59.957Z,46.09
2018-08-25T13:58:03.580Z,46.17
2018-08-25T14:03:07.783Z,46.49
2018-08-25T14:08:11.571Z,46.41
2018-08-25T14:13:15.511Z,46.27
2018-08-25T14:18:19.191Z,45.98
2018-08-25T14:23:22.802Z,46.37
2018-08-25T14:28:26.412Z,46.25
2018-08-25T14:33:30.151Z,46.35
2018-08-25T14:38:33.783Z,46.08
2018-08-25T14:43:37.408Z,45.66
2018-08-25T14:48:41.054Z,45.87
2018-08-25T14:53:44.683Z,45.81
2018-08-25T14:58:48.279Z,45.84
2018-08-25T15:03:51.879Z,45.60
2018-08-25T15:08:55.722Z,45.24
2018-08-25T15:13:59.308Z,45.08
2018-08-25T15:19:03.041Z,44.60
2018-08-25T15:24:06.754Z,43.44
2018-08-25T15:29:10.435Z,43.42
2018-08-25T15:34:14.097Z,42.81
2018-08-25T15:39:17.682Z,43.12
2018-08-25T15:44:21.473Z,43.15
2018-08-25T15:49:25.126Z,43.12
2018-08-25T15:54:29.399Z,43.60
2018-08-25T15:59:33.067Z,44.08
2018-08-25T16:04:37.036Z,42.95
2018-08-25T16:09:41.207Z,43.57
2018-08-25T16:14:44.821Z,42.17
2018-08-25T16:19:48.561Z,42.06
2018-08-25T16:24:52.147Z,41.98
2018-08-25T16:29:55.842Z,41.72
2018-08-25T16:34:59.524Z,39.13
2018-08-25T16:40:03.237Z,38.90
2018-08-25T16:45:07.922Z,40.59
2018-08-25T16:50:11.635Z,38.62
2018-08-25T16:55:15.631Z,38.70
2018-08-25T17:00:19.419Z,38.67
2018-08-25T17:05:23.214Z,38.23
2018-08-25T17:10:27.208Z,39.10
2018-08-25T17:15:30.882Z,39.10
2018-08-25T17:20:34.572Z,38.99
2018-08-25T17:25:38.178Z,38.57
2018-08-25T17:30:42.139Z,38.30
2018-08-25T17:35:46.151Z,37.81
2018-08-25T17:40:49.836Z,38.26
2018-08-25T17:45:53.610Z,38.24
2018-08-25T17:50:57.603Z,38.01
2018-08-25T17:56:01.333Z,37.97
2018-08-25T18:01:04.987Z,38.41
2018-08-25T18:06:08.619Z,38.02
2018-08-25T18:11:12.589Z,38.42
2018-08-25T18:16:16.558Z,39.05
2018-08-25T18:21:20.518Z,39.20
2018-08-25T18:26:24.454Z,39.30
2018-08-25T18:31:28.111Z,39.61
2018-08-25T18:36:31.739Z,39.44
2018-08-25T18:41:35.313Z,40.10
2018-08-25T18:46:38.885Z,39.63
2018-08-25T18:51:42.437Z,39.52
2018-08-25T18:56:46.012Z,39.78
2018-08-25T19:01:49.652Z,39.59
2018-08-25T19:06:53.349Z,39.59
2018-08-25T19:11:57.100Z,39.76
2018-08-25T19:17:01.048Z,39.80
2018-08-25T19:22:04.790Z,39.57
2018-08-25T19:27:08.507Z,39.56
2018-08-25T19:32:12.232Z,39.30
2018-08-25T19:37:15.893Z,39.66
2018-08-25T19:42:19.594Z,39.38
2018-08-25T19:47:23.430Z,39.52
2018-08-25T19:52:27.203Z,39.89
2018-08-25T19:57:30.875Z,39.90
2018-08-25T20:02:34.523Z,39.51
2018-08-25T20:07:38.164Z,39.78
2018-08-25T20:12:41.857Z,39.14
2018-08-25T20:17:45.548Z,39.43
2018-08-25T20:22:49.231Z,39.06
2018-08-25T20:27:53.051Z,39.44
2018-08-25T20:32:56.760Z,38.60
2018-08-25T20:38:00.635Z,39.25
2018-08-25T20:43:04.343Z,38.71
2018-08-25T20:48:07.677Z,39.16
2018-08-25T20:53:17.396Z,39.17
2018-08-25T20:58:21.103Z,38.85
2018-08-25T21:03:24.766Z,38.90
2018-08-25T21:08:28.462Z,38.61
2018-08-25T21:13:31.998Z,38.62
2018-08-25T21:18:35.634Z,38.76
2018-08-25T21:23:39.355Z,39.03
2018-08-25T21:28:44.171Z,38.56
2018-08-25T21:33:47.853Z,38.56
2018-08-25T21:38:51.531Z,38.67
2018-08-25T21:43:55.280Z,38.60
2018-08-25T21:48:58.879Z,38.76
2018-08-25T21:54:02.587Z,38.75
2018-08-25T21:59:06.139Z,38.80
2018-08-25T22:04:10.943Z,39.16
2018-08-25T22:09:14.533Z,39.12
2018-08-25T22:14:18.349Z,39.46
2018-08-25T22:19:21.974Z,39.70
2018-08-25T22:24:25.713Z,39.96
2018-08-25T22:29:29.356Z,40.07
2018-08-25T22:34:33.079Z,40.60
2018-08-25T22:39:36.685Z,40.64
2018-08-25T22:44:40.395Z,41.12
2018-08-25T22:49:44.229Z,41.01
2018-08-25T22:54:47.842Z,40.85
2018-08-25T22:59:51.470Z,41.39
2018-08-25T23:04:55.167Z,41.55
2018-08-25T23:09:59.082Z,41.21
2018-08-25T23:15:02.865Z,41.44
2018-08-25T23:20:06.811Z,41.68
2018-08-25T23:25:10.390Z,41.62
2018-08-25T23:30:14.056Z,41.72
2018-08-25T23:35:17.682Z,42.10
2018-08-25T23:40:21.366Z,41.80
2018-08-25T23:45:24.958Z,41.84
2018-08-25T23:50:28.756Z,42.44
2018-08-25T23:55:32.434Z,42.10
